sensor_id;sensor_type;location;lat;lon;timestamp;temperature;humidity
76567;DHT22;65428;53.194;6.132;2023-06-22T00:00:49;15.70;99.90
76567;DHT22;65428;53.194;6.132;2023-06-22T00:03:17;15.90;99.90
76567;DHT22;65428;53.194;6.132;2023-06-22T00:05:42;15.80;99.90
76567;DHT22;65428;53.194;6.132;2023-06-22T00:08:08;15.70;99.90
76567;DHT22;65428;53.194;6.132;2023-06-22T00:10:34;15.80;99.90
76567;DHT22;65428;53.194;6.132;2023-06-22T00:13:00;15.70;99.90
76567;DHT22;65428;53.194;6.132;2023-06-22T00:15:26;15.60;99.90
76567;DHT22;65428;53.194;6.132;2023-06-22T00:17:52;15.60;99.90
76567;DHT22;65428;53.194;6.132;2023-06-22T00:20:18;15.60;99.90
76567;DHT22;65428;53.194;6.132;2023-06-22T00:22:46;15.60;99.90
76567;DHT22;65428;53.194;6.132;2023-06-22T00:25:13;15.80;99.90
76567;DHT22;65428;53.194;6.132;2023-06-22T00:27:39;15.50;99.90
76567;DHT22;65428;53.194;6.132;2023-06-22T00:30:05;15.80;99.90
76567;DHT22;65428;53.194;6.132;2023-06-22T00:32:30;15.50;99.90
76567;DHT22;65428;53.194;6.132;2023-06-22T00:34:56;15.50;99.90
76567;DHT22;65428;53.194;6.132;2023-06-22T00:37:22;15.50;99.90
76567;DHT22;65428;53.194;6.132;2023-06-22T00:39:51;15.40;99.90
76567;DHT22;65428;53.194;6.132;2023-06-22T00:42:17;15.40;99.90
76567;DHT22;65428;53.194;6.132;2023-06-22T00:44:43;15.30;99.90
76567;DHT22;65428;53.194;6.132;2023-06-22T00:47:11;15.40;99.90
76567;DHT22;65428;53.194;6.132;2023-06-22T00:49:39;15.40;99.90
76567;DHT22;65428;53.194;6.132;2023-06-22T00:52:06;15.30;99.90
76567;DHT22;65428;53.194;6.132;2023-06-22T00:54:35;15.20;99.90
76567;DHT22;65428;53.194;6.132;2023-06-22T00:57:02;15.50;99.90
76567;DHT22;65428;53.194;6.132;2023-06-22T00:59:28;15.00;99.90
76567;DHT22;65428;53.194;6.132;2023-06-22T01:01:54;14.90;99.90
76567;DHT22;65428;53.194;6.132;2023-06-22T01:04:23;14.80;99.90
76567;DHT22;65428;53.194;6.132;2023-06-22T01:06:56;14.90;99.90
76567;DHT22;65428;53.194;6.132;2023-06-22T01:09:32;14.80;99.90
76567;DHT22;65428;53.194;6.132;2023-06-22T01:12:06;14.90;99.90
76567;DHT22;65428;53.194;6.132;2023-06-22T01:14:47;14.90;99.90
76567;DHT22;65428;53.194;6.132;2023-06-22T01:17:19;14.70;99.90
76567;DHT22;65428;53.194;6.132;2023-06-22T01:19:48;14.60;99.90
76567;DHT22;65428;53.194;6.132;2023-06-22T01:22:24;14.90;99.90
76567;DHT22;65428;53.194;6.132;2023-06-22T01:25:12;14.60;99.90
76567;DHT22;65428;53.194;6.132;2023-06-22T01:30:30;14.60;99.90
76567;DHT22;65428;53.194;6.132;2023-06-22T01:32:57;14.60;99.90
76567;DHT22;65428;53.194;6.132;2023-06-22T01:35:24;14.60;99.90
76567;DHT22;65428;53.194;6.132;2023-06-22T01:37:50;14.60;99.90
76567;DHT22;65428;53.194;6.132;2023-06-22T01:40:16;14.80;99.90
76567;DHT22;65428;53.194;6.132;2023-06-22T01:42:44;14.70;99.90
76567;DHT22;65428;53.194;6.132;2023-06-22T01:45:11;14.80;99.90
76567;DHT22;65428;53.194;6.132;2023-06-22T01:47:39;14.90;99.90
76567;DHT22;65428;53.194;6.132;2023-06-22T01:50:05;14.70;99.90
76567;DHT22;65428;53.194;6.132;2023-06-22T01:52:31;14.60;99.90
76567;DHT22;65428;53.194;6.132;2023-06-22T01:54:59;14.70;99.90
76567;DHT22;65428;53.194;6.132;2023-06-22T01:57:26;14.50;99.90
76567;DHT22;65428;53.194;6.132;2023-06-22T02:00:04;14.40;99.90
76567;DHT22;65428;53.194;6.132;2023-06-22T02:02:39;14.40;99.90
76567;DHT22;65428;53.194;6.132;2023-06-22T02:05:09;14.40;99.90
76567;DHT22;65428;53.194;6.132;2023-06-22T02:07:43;14.40;99.90
76567;DHT22;65428;53.194;6.132;2023-06-22T02:10:11;14.50;99.90
76567;DHT22;65428;53.194;6.132;2023-06-22T02:12:40;14.50;99.90
76567;DHT22;65428;53.194;6.132;2023-06-22T02:15:07;14.30;99.90
76567;DHT22;65428;53.194;6.132;2023-06-22T02:17:34;14.30;99.90
76567;DHT22;65428;53.194;6.132;2023-06-22T02:20:02;14.30;99.90
76567;DHT22;65428;53.194;6.132;2023-06-22T02:22:34;14.50;99.90
76567;DHT22;65428;53.194;6.132;2023-06-22T02:24:59;14.50;99.90
76567;DHT22;65428;53.194;6.132;2023-06-22T02:27:25;14.40;99.90
76567;DHT22;65428;53.194;6.132;2023-06-22T02:29:51;14.40;99.90
76567;DHT22;65428;53.194;6.132;2023-06-22T02:32:17;14.40;99.90
76567;DHT22;65428;53.194;6.132;2023-06-22T02:34:43;14.10;99.90
76567;DHT22;65428;53.194;6.132;2023-06-22T02:37:13;14.10;99.90
76567;DHT22;65428;53.194;6.132;2023-06-22T02:39:40;14.10;99.90
76567;DHT22;65428;53.194;6.132;2023-06-22T02:42:06;14.10;99.90
76567;DHT22;65428;53.194;6.132;2023-06-22T02:44:31;14.10;99.90
76567;DHT22;65428;53.194;6.132;2023-06-22T02:46:58;14.30;99.90
76567;DHT22;65428;53.194;6.132;2023-06-22T02:49:24;14.20;99.90
76567;DHT22;65428;53.194;6.132;2023-06-22T02:51:49;14.20;99.90
76567;DHT22;65428;53.194;6.132;2023-06-22T02:54:15;14.30;99.90
76567;DHT22;65428;53.194;6.132;2023-06-22T02:56:42;14.10;99.90
76567;DHT22;65428;53.194;6.132;2023-06-22T02:59:10;14.10;99.90
76567;DHT22;65428;53.194;6.132;2023-06-22T03:01:36;14.10;99.90
76567;DHT22;65428;53.194;6.132;2023-06-22T03:04:09;14.10;99.90
76567;DHT22;65428;53.194;6.132;2023-06-22T03:06:35;14.00;99.90
76567;DHT22;65428;53.194;6.132;2023-06-22T03:09:03;14.10;99.90
76567;DHT22;65428;53.194;6.132;2023-06-22T03:11:30;14.10;99.90
76567;DHT22;65428;53.194;6.132;2023-06-22T03:13:56;14.10;99.90
76567;DHT22;65428;53.194;6.132;2023-06-22T03:16:22;14.00;99.90
76567;DHT22;65428;53.194;6.132;2023-06-22T03:18:47;14.10;99.90
76567;DHT22;65428;53.194;6.132;2023-06-22T03:21:13;13.90;99.90
76567;DHT22;65428;53.194;6.132;2023-06-22T03:23:41;14.10;99.90
76567;DHT22;65428;53.194;6.132;2023-06-22T03:26:06;13.90;99.90
76567;DHT22;65428;53.194;6.132;2023-06-22T03:28:32;14.00;99.90
76567;DHT22;65428;53.194;6.132;2023-06-22T03:30:58;14.00;99.90
76567;DHT22;65428;53.194;6.132;2023-06-22T03:33:24;13.80;99.90
76567;DHT22;65428;53.194;6.132;2023-06-22T03:35:49;13.80;99.90
76567;DHT22;65428;53.194;6.132;2023-06-22T03:38:19;13.80;99.90
76567;DHT22;65428;53.194;6.132;2023-06-22T03:40:45;13.80;99.90
76567;DHT22;65428;53.194;6.132;2023-06-22T03:43:10;13.80;99.90
76567;DHT22;65428;53.194;6.132;2023-06-22T03:45:36;14.00;99.90
76567;DHT22;65428;53.194;6.132;2023-06-22T03:48:02;13.80;99.90
76567;DHT22;65428;53.194;6.132;2023-06-22T03:50:28;13.90;99.90
76567;DHT22;65428;53.194;6.132;2023-06-22T03:52:55;14.00;99.90
76567;DHT22;65428;53.194;6.132;2023-06-22T03:55:21;13.90;99.90
76567;DHT22;65428;53.194;6.132;2023-06-22T03:57:47;14.00;99.90
76567;DHT22;65428;53.194;6.132;2023-06-22T04:00:13;14.30;99.90
76567;DHT22;65428;53.194;6.132;2023-06-22T04:02:41;14.10;99.90
76567;DHT22;65428;53.194;6.132;2023-06-22T04:05:09;14.30;99.90
76567;DHT22;65428;53.194;6.132;2023-06-22T04:07:35;14.30;99.90
76567;DHT22;65428;53.194;6.132;2023-06-22T04:10:03;14.30;99.90
76567;DHT22;65428;53.194;6.132;2023-06-22T04:12:29;14.30;99.90
76567;DHT22;65428;53.194;6.132;2023-06-22T04:14:55;14.40;99.90
76567;DHT22;65428;53.194;6.132;2023-06-22T04:17:20;14.40;99.90
76567;DHT22;65428;53.194;6.132;2023-06-22T04:19:46;14.40;99.90
76567;DHT22;65428;53.194;6.132;2023-06-22T04:22:12;14.30;99.90
76567;DHT22;65428;53.194;6.132;2023-06-22T04:24:38;14.40;99.90
76567;DHT22;65428;53.194;6.132;2023-06-22T04:27:04;14.40;99.90
76567;DHT22;65428;53.194;6.132;2023-06-22T04:29:30;14.40;99.90
76567;DHT22;65428;53.194;6.132;2023-06-22T04:31:57;14.60;99.90
76567;DHT22;65428;53.194;6.132;2023-06-22T04:34:28;14.50;99.90
76567;DHT22;65428;53.194;6.132;2023-06-22T04:36:54;14.60;99.90
76567;DHT22;65428;53.194;6.132;2023-06-22T04:39:20;14.70;99.90
76567;DHT22;65428;53.194;6.132;2023-06-22T04:41:46;14.80;99.90
76567;DHT22;65428;53.194;6.132;2023-06-22T04:44:12;14.80;99.90
76567;DHT22;65428;53.194;6.132;2023-06-22T04:46:39;15.00;99.90
76567;DHT22;65428;53.194;6.132;2023-06-22T04:49:08;15.10;99.90
76567;DHT22;65428;53.194;6.132;2023-06-22T04:51:41;15.50;99.90
76567;DHT22;65428;53.194;6.132;2023-06-22T04:54:08;15.40;99.90
76567;DHT22;65428;53.194;6.132;2023-06-22T04:56:34;15.70;99.90
76567;DHT22;65428;53.194;6.132;2023-06-22T04:59:00;15.60;99.90
76567;DHT22;65428;53.194;6.132;2023-06-22T05:01:26;15.90;99.90
76567;DHT22;65428;53.194;6.132;2023-06-22T05:03:52;15.70;99.90
76567;DHT22;65428;53.194;6.132;2023-06-22T05:06:24;16.00;99.90
76567;DHT22;65428;53.194;6.132;2023-06-22T05:08:54;15.80;99.90
76567;DHT22;65428;53.194;6.132;2023-06-22T05:11:27;15.90;99.90
76567;DHT22;65428;53.194;6.132;2023-06-22T05:13:53;16.00;99.90
76567;DHT22;65428;53.194;6.132;2023-06-22T05:16:19;16.20;99.90
76567;DHT22;65428;53.194;6.132;2023-06-22T05:18:53;16.30;99.90
76567;DHT22;65428;53.194;6.132;2023-06-22T05:21:26;16.60;99.90
76567;DHT22;65428;53.194;6.132;2023-06-22T05:23:53;16.40;99.90
76567;DHT22;65428;53.194;6.132;2023-06-22T05:26:20;16.80;99.90
76567;DHT22;65428;53.194;6.132;2023-06-22T05:28:46;17.00;99.90
76567;DHT22;65428;53.194;6.132;2023-06-22T05:31:16;16.90;99.90
76567;DHT22;65428;53.194;6.132;2023-06-22T05:33:43;17.00;99.90
76567;DHT22;65428;53.194;6.132;2023-06-22T05:36:09;17.30;99.90
76567;DHT22;65428;53.194;6.132;2023-06-22T05:38:36;17.50;99.90
76567;DHT22;65428;53.194;6.132;2023-06-22T05:41:02;17.70;99.90
76567;DHT22;65428;53.194;6.132;2023-06-22T05:43:27;17.90;99.90
76567;DHT22;65428;53.194;6.132;2023-06-22T05:45:53;17.80;99.90
76567;DHT22;65428;53.194;6.132;2023-06-22T05:48:19;18.20;99.90
76567;DHT22;65428;53.194;6.132;2023-06-22T05:50:44;18.30;99.90
76567;DHT22;65428;53.194;6.132;2023-06-22T05:53:10;18.40;99.90
76567;DHT22;65428;53.194;6.132;2023-06-22T05:55:36;18.90;99.90
76567;DHT22;65428;53.194;6.132;2023-06-22T05:58:02;18.60;99.90
76567;DHT22;65428;53.194;6.132;2023-06-22T06:00:29;19.00;99.90
76567;DHT22;65428;53.194;6.132;2023-06-22T06:02:54;19.00;99.90
76567;DHT22;65428;53.194;6.132;2023-06-22T06:05:20;19.20;99.90
76567;DHT22;65428;53.194;6.132;2023-06-22T06:07:46;19.40;99.90
76567;DHT22;65428;53.194;6.132;2023-06-22T06:10:12;19.50;99.90
76567;DHT22;65428;53.194;6.132;2023-06-22T06:12:38;19.70;99.90
76567;DHT22;65428;53.194;6.132;2023-06-22T06:15:04;19.90;99.90
76567;DHT22;65428;53.194;6.132;2023-06-22T06:17:30;20.00;99.90
76567;DHT22;65428;53.194;6.132;2023-06-22T06:19:56;20.00;99.90
76567;DHT22;65428;53.194;6.132;2023-06-22T06:22:21;20.30;99.90
76567;DHT22;65428;53.194;6.132;2023-06-22T06:24:49;20.30;99.90
76567;DHT22;65428;53.194;6.132;2023-06-22T06:27:15;20.30;99.90
76567;DHT22;65428;53.194;6.132;2023-06-22T06:29:43;20.40;99.90
76567;DHT22;65428;53.194;6.132;2023-06-22T06:32:11;20.30;99.90
76567;DHT22;65428;53.194;6.132;2023-06-22T06:34:36;20.60;99.90
76567;DHT22;65428;53.194;6.132;2023-06-22T06:37:03;20.60;99.90
76567;DHT22;65428;53.194;6.132;2023-06-22T06:39:28;20.50;99.90
76567;DHT22;65428;53.194;6.132;2023-06-22T06:41:54;20.70;99.90
76567;DHT22;65428;53.194;6.132;2023-06-22T06:44:20;20.60;99.90
76567;DHT22;65428;53.194;6.132;2023-06-22T06:46:45;21.00;99.90
76567;DHT22;65428;53.194;6.132;2023-06-22T06:49:11;20.90;99.90
76567;DHT22;65428;53.194;6.132;2023-06-22T06:51:37;20.80;99.90
76567;DHT22;65428;53.194;6.132;2023-06-22T06:54:02;20.90;99.90
76567;DHT22;65428;53.194;6.132;2023-06-22T06:56:28;20.80;99.90
76567;DHT22;65428;53.194;6.132;2023-06-22T06:58:55;21.30;99.90
76567;DHT22;65428;53.194;6.132;2023-06-22T07:01:21;21.10;99.90
76567;DHT22;65428;53.194;6.132;2023-06-22T07:03:47;21.20;99.90
76567;DHT22;65428;53.194;6.132;2023-06-22T07:06:13;21.30;99.90
76567;DHT22;65428;53.194;6.132;2023-06-22T07:08:39;21.50;99.90
76567;DHT22;65428;53.194;6.132;2023-06-22T07:11:05;21.40;99.90
76567;DHT22;65428;53.194;6.132;2023-06-22T07:13:31;21.70;99.90
76567;DHT22;65428;53.194;6.132;2023-06-22T07:15:57;21.60;99.90
76567;DHT22;65428;53.194;6.132;2023-06-22T07:18:23;21.60;99.90
76567;DHT22;65428;53.194;6.132;2023-06-22T07:20:48;21.70;99.90
76567;DHT22;65428;53.194;6.132;2023-06-22T07:23:14;21.80;99.90
76567;DHT22;65428;53.194;6.132;2023-06-22T07:25:40;21.90;99.90
76567;DHT22;65428;53.194;6.132;2023-06-22T07:28:07;21.90;99.90
76567;DHT22;65428;53.194;6.132;2023-06-22T07:30:33;22.10;99.90
76567;DHT22;65428;53.194;6.132;2023-06-22T07:32:59;22.30;99.90
76567;DHT22;65428;53.194;6.132;2023-06-22T07:35:32;22.30;99.90
76567;DHT22;65428;53.194;6.132;2023-06-22T07:37:57;22.50;99.90
76567;DHT22;65428;53.194;6.132;2023-06-22T07:40:23;22.70;99.90
76567;DHT22;65428;53.194;6.132;2023-06-22T07:42:48;22.80;99.90
76567;DHT22;65428;53.194;6.132;2023-06-22T07:45:17;22.90;99.90
76567;DHT22;65428;53.194;6.132;2023-06-22T07:47:43;23.00;99.90
76567;DHT22;65428;53.194;6.132;2023-06-22T07:50:09;23.10;99.90
76567;DHT22;65428;53.194;6.132;2023-06-22T07:52:35;23.20;99.90
76567;DHT22;65428;53.194;6.132;2023-06-22T07:55:01;23.30;99.90
76567;DHT22;65428;53.194;6.132;2023-06-22T07:57:28;23.50;99.90
76567;DHT22;65428;53.194;6.132;2023-06-22T07:59:58;23.60;99.90
76567;DHT22;65428;53.194;6.132;2023-06-22T08:02:24;23.60;99.90
76567;DHT22;65428;53.194;6.132;2023-06-22T08:04:50;23.90;99.90
76567;DHT22;65428;53.194;6.132;2023-06-22T08:07:15;23.90;99.90
76567;DHT22;65428;53.194;6.132;2023-06-22T08:09:46;24.00;99.90
76567;DHT22;65428;53.194;6.132;2023-06-22T08:12:12;24.10;99.90
76567;DHT22;65428;53.194;6.132;2023-06-22T08:14:38;24.30;99.90
76567;DHT22;65428;53.194;6.132;2023-06-22T08:17:04;24.10;99.90
76567;DHT22;65428;53.194;6.132;2023-06-22T08:19:30;24.20;99.90
76567;DHT22;65428;53.194;6.132;2023-06-22T08:21:56;24.40;99.90
76567;DHT22;65428;53.194;6.132;2023-06-22T08:24:23;24.40;99.90
76567;DHT22;65428;53.194;6.132;2023-06-22T08:26:51;24.40;99.90
76567;DHT22;65428;53.194;6.132;2023-06-22T08:29:17;24.40;99.90
76567;DHT22;65428;53.194;6.132;2023-06-22T08:31:42;24.50;99.90
76567;DHT22;65428;53.194;6.132;2023-06-22T08:34:08;24.70;99.90
76567;DHT22;65428;53.194;6.132;2023-06-22T08:36:34;24.80;99.90
76567;DHT22;65428;53.194;6.132;2023-06-22T08:39:07;25.00;99.90
76567;DHT22;65428;53.194;6.132;2023-06-22T08:41:33;25.10;99.90
76567;DHT22;65428;53.194;6.132;2023-06-22T08:43:59;25.10;99.90
76567;DHT22;65428;53.194;6.132;2023-06-22T08:46:25;25.10;99.90
76567;DHT22;65428;53.194;6.132;2023-06-22T08:48:56;25.20;99.90
76567;DHT22;65428;53.194;6.132;2023-06-22T08:51:23;25.40;99.90
76567;DHT22;65428;53.194;6.132;2023-06-22T08:53:49;25.40;99.90
76567;DHT22;65428;53.194;6.132;2023-06-22T08:56:14;25.70;99.90
76567;DHT22;65428;53.194;6.132;2023-06-22T08:58:40;25.80;99.90
76567;DHT22;65428;53.194;6.132;2023-06-22T09:01:05;25.90;99.90
76567;DHT22;65428;53.194;6.132;2023-06-22T09:03:31;25.90;98.30
76567;DHT22;65428;53.194;6.132;2023-06-22T09:05:58;25.90;99.90
76567;DHT22;65428;53.194;6.132;2023-06-22T09:08:24;26.20;95.70
76567;DHT22;65428;53.194;6.132;2023-06-22T09:10:50;26.20;96.70
76567;DHT22;65428;53.194;6.132;2023-06-22T09:13:15;26.20;92.20
76567;DHT22;65428;53.194;6.132;2023-06-22T09:15:41;26.20;94.00
76567;DHT22;65428;53.194;6.132;2023-06-22T09:18:09;26.30;96.20
76567;DHT22;65428;53.194;6.132;2023-06-22T09:20:35;26.50;99.30
76567;DHT22;65428;53.194;6.132;2023-06-22T09:23:01;26.60;96.00
76567;DHT22;65428;53.194;6.132;2023-06-22T09:25:26;26.70;95.00
76567;DHT22;65428;53.194;6.132;2023-06-22T09:27:52;26.40;91.00
76567;DHT22;65428;53.194;6.132;2023-06-22T09:30:18;26.40;94.40
76567;DHT22;65428;53.194;6.132;2023-06-22T09:32:44;26.20;92.80
76567;DHT22;65428;53.194;6.132;2023-06-22T09:35:10;26.20;93.50
76567;DHT22;65428;53.194;6.132;2023-06-22T09:37:38;26.20;96.80
76567;DHT22;65428;53.194;6.132;2023-06-22T09:40:04;26.40;96.50
76567;DHT22;65428;53.194;6.132;2023-06-22T09:42:38;26.70;97.30
76567;DHT22;65428;53.194;6.132;2023-06-22T09:45:04;27.00;91.80
76567;DHT22;65428;53.194;6.132;2023-06-22T09:47:30;27.20;90.80
76567;DHT22;65428;53.194;6.132;2023-06-22T09:49:55;27.40;85.50
76567;DHT22;65428;53.194;6.132;2023-06-22T09:52:22;27.50;79.70
76567;DHT22;65428;53.194;6.132;2023-06-22T09:54:48;27.60;78.80
76567;DHT22;65428;53.194;6.132;2023-06-22T09:57:13;27.80;69.60
76567;DHT22;65428;53.194;6.132;2023-06-22T09:59:39;27.70;61.70
76567;DHT22;65428;53.194;6.132;2023-06-22T10:02:08;27.60;67.30
76567;DHT22;65428;53.194;6.132;2023-06-22T10:04:34;27.60;74.00
76567;DHT22;65428;53.194;6.132;2023-06-22T10:07:00;27.80;66.50
76567;DHT22;65428;53.194;6.132;2023-06-22T10:09:26;28.00;66.80
76567;DHT22;65428;53.194;6.132;2023-06-22T10:11:52;28.10;62.70
76567;DHT22;65428;53.194;6.132;2023-06-22T10:14:18;28.20;64.00
76567;DHT22;65428;53.194;6.132;2023-06-22T10:16:44;28.50;62.20
76567;DHT22;65428;53.194;6.132;2023-06-22T10:19:10;28.80;57.50
76567;DHT22;65428;53.194;6.132;2023-06-22T10:21:35;29.00;58.50
76567;DHT22;65428;53.194;6.132;2023-06-22T10:24:01;29.20;55.70
76567;DHT22;65428;53.194;6.132;2023-06-22T10:26:34;29.30;56.10
76567;DHT22;65428;53.194;6.132;2023-06-22T10:29:01;29.40;53.10
76567;DHT22;65428;53.194;6.132;2023-06-22T10:31:27;29.60;52.60
76567;DHT22;65428;53.194;6.132;2023-06-22T10:33:53;29.70;53.00
76567;DHT22;65428;53.194;6.132;2023-06-22T10:36:19;29.80;51.20
76567;DHT22;65428;53.194;6.132;2023-06-22T10:38:45;29.70;50.00
76567;DHT22;65428;53.194;6.132;2023-06-22T10:41:12;29.60;52.40
76567;DHT22;65428;53.194;6.132;2023-06-22T10:43:38;30.00;52.10
76567;DHT22;65428;53.194;6.132;2023-06-22T10:46:03;30.20;52.00
76567;DHT22;65428;53.194;6.132;2023-06-22T10:48:29;30.50;51.10
76567;DHT22;65428;53.194;6.132;2023-06-22T10:50:55;30.70;50.70
76567;DHT22;65428;53.194;6.132;2023-06-22T10:53:20;31.00;51.30
76567;DHT22;65428;53.194;6.132;2023-06-22T10:55:47;31.30;50.30
76567;DHT22;65428;53.194;6.132;2023-06-22T10:58:12;31.50;46.90
76567;DHT22;65428;53.194;6.132;2023-06-22T11:00:38;31.70;46.90
76567;DHT22;65428;53.194;6.132;2023-06-22T11:03:03;31.80;46.10
76567;DHT22;65428;53.194;6.132;2023-06-22T11:05:29;31.80;46.90
76567;DHT22;65428;53.194;6.132;2023-06-22T11:07:54;31.80;46.10
76567;DHT22;65428;53.194;6.132;2023-06-22T11:10:20;32.00;45.60
76567;DHT22;65428;53.194;6.132;2023-06-22T11:12:46;32.00;44.80
76567;DHT22;65428;53.194;6.132;2023-06-22T11:15:11;31.80;44.10
76567;DHT22;65428;53.194;6.132;2023-06-22T11:17:37;31.80;46.10
76567;DHT22;65428;53.194;6.132;2023-06-22T11:20:03;32.00;45.50
76567;DHT22;65428;53.194;6.132;2023-06-22T11:22:37;32.20;46.40
76567;DHT22;65428;53.194;6.132;2023-06-22T11:25:05;32.00;45.60
76567;DHT22;65428;53.194;6.132;2023-06-22T11:27:31;31.90;46.20
76567;DHT22;65428;53.194;6.132;2023-06-22T11:29:56;31.70;46.80
76567;DHT22;65428;53.194;6.132;2023-06-22T11:32:23;31.60;46.10
76567;DHT22;65428;53.194;6.132;2023-06-22T11:34:48;31.50;47.10
76567;DHT22;65428;53.194;6.132;2023-06-22T11:37:14;31.20;48.30
76567;DHT22;65428;53.194;6.132;2023-06-22T11:39:41;30.90;46.90
76567;DHT22;65428;53.194;6.132;2023-06-22T11:42:07;30.80;49.10
76567;DHT22;65428;53.194;6.132;2023-06-22T11:44:33;30.80;49.50
76567;DHT22;65428;53.194;6.132;2023-06-22T11:46:59;30.70;49.20
76567;DHT22;65428;53.194;6.132;2023-06-22T11:49:26;31.00;52.00
76567;DHT22;65428;53.194;6.132;2023-06-22T11:51:52;31.20;51.10
76567;DHT22;65428;53.194;6.132;2023-06-22T11:54:18;31.50;50.30
76567;DHT22;65428;53.194;6.132;2023-06-22T11:56:44;31.70;50.90
76567;DHT22;65428;53.194;6.132;2023-06-22T11:59:09;31.80;48.80
76567;DHT22;65428;53.194;6.132;2023-06-22T12:01:35;31.50;47.40
76567;DHT22;65428;53.194;6.132;2023-06-22T12:04:01;31.20;48.80
76567;DHT22;65428;53.194;6.132;2023-06-22T12:06:27;31.00;48.10
76567;DHT22;65428;53.194;6.132;2023-06-22T12:08:52;30.80;49.60
76567;DHT22;65428;53.194;6.132;2023-06-22T12:11:18;30.70;50.10
76567;DHT22;65428;53.194;6.132;2023-06-22T12:13:44;30.60;50.00
76567;DHT22;65428;53.194;6.132;2023-06-22T12:16:09;30.60;49.80
76567;DHT22;65428;53.194;6.132;2023-06-22T12:18:35;30.50;50.20
76567;DHT22;65428;53.194;6.132;2023-06-22T12:21:01;30.20;50.20
76567;DHT22;65428;53.194;6.132;2023-06-22T12:23:26;30.20;51.70
76567;DHT22;65428;53.194;6.132;2023-06-22T12:25:52;30.10;51.60
76567;DHT22;65428;53.194;6.132;2023-06-22T12:28:18;30.10;51.30
76567;DHT22;65428;53.194;6.132;2023-06-22T12:30:43;29.90;52.10
76567;DHT22;65428;53.194;6.132;2023-06-22T12:33:09;29.80;51.80
76567;DHT22;65428;53.194;6.132;2023-06-22T12:35:35;29.70;51.80
76567;DHT22;65428;53.194;6.132;2023-06-22T12:38:00;29.60;53.90
76567;DHT22;65428;53.194;6.132;2023-06-22T12:40:26;29.40;52.80
76567;DHT22;65428;53.194;6.132;2023-06-22T12:42:52;29.40;55.20
76567;DHT22;65428;53.194;6.132;2023-06-22T12:45:18;29.40;54.30
76567;DHT22;65428;53.194;6.132;2023-06-22T12:47:44;29.20;54.70
76567;DHT22;65428;53.194;6.132;2023-06-22T12:50:09;28.70;54.40
76567;DHT22;65428;53.194;6.132;2023-06-22T12:52:36;28.90;54.60
76567;DHT22;65428;53.194;6.132;2023-06-22T12:55:05;28.90;55.70
76567;DHT22;65428;53.194;6.132;2023-06-22T12:57:30;28.80;56.60
76567;DHT22;65428;53.194;6.132;2023-06-22T12:59:56;28.80;55.90
76567;DHT22;65428;53.194;6.132;2023-06-22T13:02:24;28.70;56.10
76567;DHT22;65428;53.194;6.132;2023-06-22T13:04:49;28.60;57.50
76567;DHT22;65428;53.194;6.132;2023-06-22T13:07:15;28.50;56.70
76567;DHT22;65428;53.194;6.132;2023-06-22T13:09:41;28.40;59.10
76567;DHT22;65428;53.194;6.132;2023-06-22T13:12:07;28.40;60.40
76567;DHT22;65428;53.194;6.132;2023-06-22T13:14:32;28.30;57.00
76567;DHT22;65428;53.194;6.132;2023-06-22T13:16:58;28.30;59.40
76567;DHT22;65428;53.194;6.132;2023-06-22T13:19:24;28.30;60.90
76567;DHT22;65428;53.194;6.132;2023-06-22T13:21:50;28.30;59.50
76567;DHT22;65428;53.194;6.132;2023-06-22T13:24:15;28.40;59.80
76567;DHT22;65428;53.194;6.132;2023-06-22T13:26:41;28.30;58.90
76567;DHT22;65428;53.194;6.132;2023-06-22T13:29:07;28.30;58.10
76567;DHT22;65428;53.194;6.132;2023-06-22T13:31:33;28.20;58.30
76567;DHT22;65428;53.194;6.132;2023-06-22T13:33:58;28.10;61.00
76567;DHT22;65428;53.194;6.132;2023-06-22T13:36:24;28.00;63.80
76567;DHT22;65428;53.194;6.132;2023-06-22T13:38:53;28.00;64.40
76567;DHT22;65428;53.194;6.132;2023-06-22T13:41:19;28.10;63.80
76567;DHT22;65428;53.194;6.132;2023-06-22T13:43:44;27.80;60.70
76567;DHT22;65428;53.194;6.132;2023-06-22T13:46:10;27.60;61.00
76567;DHT22;65428;53.194;6.132;2023-06-22T13:48:35;27.60;67.40
76567;DHT22;65428;53.194;6.132;2023-06-22T13:51:01;27.40;66.30
76567;DHT22;65428;53.194;6.132;2023-06-22T13:53:27;27.20;65.10
76567;DHT22;65428;53.194;6.132;2023-06-22T13:55:52;27.10;76.90
76567;DHT22;65428;53.194;6.132;2023-06-22T13:58:18;27.10;67.70
76567;DHT22;65428;53.194;6.132;2023-06-22T14:00:45;26.90;66.70
76567;DHT22;65428;53.194;6.132;2023-06-22T14:03:11;26.70;70.10
76567;DHT22;65428;53.194;6.132;2023-06-22T14:05:36;26.70;69.50
76567;DHT22;65428;53.194;6.132;2023-06-22T14:08:02;26.50;67.80
76567;DHT22;65428;53.194;6.132;2023-06-22T14:10:27;26.50;71.70
76567;DHT22;65428;53.194;6.132;2023-06-22T14:12:53;26.30;73.30
76567;DHT22;65428;53.194;6.132;2023-06-22T14:15:19;26.20;72.50
76567;DHT22;65428;53.194;6.132;2023-06-22T14:17:44;26.10;75.00
76567;DHT22;65428;53.194;6.132;2023-06-22T14:20:10;26.10;78.60
76567;DHT22;65428;53.194;6.132;2023-06-22T14:22:36;26.00;78.50
76567;DHT22;65428;53.194;6.132;2023-06-22T14:25:01;25.90;72.50
76567;DHT22;65428;53.194;6.132;2023-06-22T14:27:27;25.80;72.80
76567;DHT22;65428;53.194;6.132;2023-06-22T14:29:53;25.60;79.40
76567;DHT22;65428;53.194;6.132;2023-06-22T14:32:19;25.40;78.20
76567;DHT22;65428;53.194;6.132;2023-06-22T14:34:44;25.50;82.10
76567;DHT22;65428;53.194;6.132;2023-06-22T14:37:10;25.40;83.70
76567;DHT22;65428;53.194;6.132;2023-06-22T14:39:36;25.60;84.90
76567;DHT22;65428;53.194;6.132;2023-06-22T14:42:03;25.70;89.70
76567;DHT22;65428;53.194;6.132;2023-06-22T14:44:29;25.60;83.20
76567;DHT22;65428;53.194;6.132;2023-06-22T14:46:56;25.50;77.50
76567;DHT22;65428;53.194;6.132;2023-06-22T14:49:21;25.60;76.60
76567;DHT22;65428;53.194;6.132;2023-06-22T14:51:47;25.50;74.80
76567;DHT22;65428;53.194;6.132;2023-06-22T14:54:12;25.50;76.10
76567;DHT22;65428;53.194;6.132;2023-06-22T14:56:38;25.70;73.20
76567;DHT22;65428;53.194;6.132;2023-06-22T14:59:04;25.40;74.50
76567;DHT22;65428;53.194;6.132;2023-06-22T15:01:29;25.20;76.70
76567;DHT22;65428;53.194;6.132;2023-06-22T15:03:58;25.10;78.40
76567;DHT22;65428;53.194;6.132;2023-06-22T15:06:23;25.20;79.40
76567;DHT22;65428;53.194;6.132;2023-06-22T15:08:49;25.20;73.20
76567;DHT22;65428;53.194;6.132;2023-06-22T15:11:15;25.10;74.70
76567;DHT22;65428;53.194;6.132;2023-06-22T15:13:41;25.10;74.20
76567;DHT22;65428;53.194;6.132;2023-06-22T15:16:07;25.10;73.40
76567;DHT22;65428;53.194;6.132;2023-06-22T15:18:33;25.10;73.20
76567;DHT22;65428;53.194;6.132;2023-06-22T15:21:01;25.00;73.50
76567;DHT22;65428;53.194;6.132;2023-06-22T15:23:30;25.00;72.30
76567;DHT22;65428;53.194;6.132;2023-06-22T15:25:57;24.90;68.20
76567;DHT22;65428;53.194;6.132;2023-06-22T15:28:22;25.00;69.20